Time;durP1;ratioP1;P1;durP2;ratioP2;P2;SDS_P1;SDS_P2;PMS_P1;PMS_P2;Temp;Humidity;BMP_temperature;BMP_pressure;BME280_temperature;BME280_humidity;BME280_pressure;Samples;Min_cycle;Max_cycle;Signal;HPM_P1;HPM_P2
2023/09/10 00:02:09;;;;;;;6.53;5.68;;;;;;;28.49;49.70;101837.81;4980888;28;20423;-36
2023/09/10 00:04:36;;;;;;;5.57;4.90;;;;;;;28.47;50.47;101831.75;4982422;28;20054;-36
2023/09/10 00:07:03;;;;;;;5.28;4.78;;;;;;;28.47;49.98;101834.47;4985385;28;20054;-36
2023/09/10 00:09:29;;;;;;;5.82;5.05;;;;;;;28.45;50.32;101831.94;4985019;28;20499;-36
2023/09/10 00:11:56;;;;;;;5.70;4.70;;;;;;;28.45;49.83;101833.81;4984848;28;20046;-35
2023/09/10 00:14:23;;;;;;;5.00;4.50;;;;;;;28.44;50.41;101845.78;4988252;28;20141;-36
2023/09/10 00:16:49;;;;;;;6.32;5.13;;;;;;;28.43;49.86;101841.38;4986491;28;20165;-36
2023/09/10 00:19:16;;;;;;;5.40;4.82;;;;;;;28.42;50.28;101840.53;4987319;28;20046;-36
2023/09/10 00:21:42;;;;;;;5.78;4.90;;;;;;;28.41;50.03;101844.28;4982907;28;20047;-36
2023/09/10 00:24:11;;;;;;;11.02;4.90;;;;;;;28.41;50.20;101846.16;4983743;28;20078;-36
2023/09/10 00:26:37;;;;;;;7.90;4.72;;;;;;;28.38;49.96;101839.22;4984816;28;20056;-36
2023/09/10 00:29:04;;;;;;;6.70;5.38;;;;;;;28.38;50.58;101841.94;4985732;28;20078;-36
2023/09/10 00:31:33;;;;;;;6.05;5.45;;;;;;;28.35;50.14;101836.88;4985902;28;20054;-36
2023/09/10 00:34:00;;;;;;;5.93;5.20;;;;;;;28.35;50.16;101834.16;4987693;28;20050;-36
2023/09/10 00:36:26;;;;;;;6.72;4.97;;;;;;;28.35;50.46;101827.84;4987957;28;20046;-36
2023/09/10 00:38:53;;;;;;;6.88;5.20;;;;;;;28.34;49.83;101832.44;4987800;28;20101;-36
2023/09/10 00:41:20;;;;;;;5.32;4.82;;;;;;;28.33;49.80;101828.03;4984993;28;20628;-36
2023/09/10 00:43:46;;;;;;;5.38;4.60;;;;;;;28.32;49.93;101826.34;4988469;28;20137;-36
2023/09/10 00:46:13;;;;;;;4.95;4.43;;;;;;;28.31;50.52;101824.69;4985013;28;20353;-36
2023/09/10 00:48:40;;;;;;;6.20;4.63;;;;;;;28.29;50.69;101827.59;4985650;28;20046;-36
2023/09/10 00:51:08;;;;;;;5.32;4.78;;;;;;;28.29;49.80;101821.28;4985335;28;20062;-35
2023/09/10 00:53:34;;;;;;;5.15;4.65;;;;;;;28.27;49.96;101821.50;4985039;28;20089;-36
2023/09/10 00:56:02;;;;;;;5.25;4.75;;;;;;;28.25;50.18;101823.56;4981647;28;20081;-35
2023/09/10 00:58:28;;;;;;;5.10;4.57;;;;;;;28.24;50.35;101821.06;4986860;28;20049;-35
2023/09/10 01:00:55;;;;;;;5.55;4.60;;;;;;;28.23;50.01;101828.38;4983316;28;20391;-36
2023/09/10 01:03:23;;;;;;;5.55;5.03;;;;;;;28.23;49.97;101824.81;4984938;28;20422;-35
2023/09/10 01:05:50;;;;;;;5.03;4.53;;;;;;;28.21;50.27;101827.72;4984746;28;20086;-35
2023/09/10 01:08:17;;;;;;;5.35;4.45;;;;;;;28.20;49.83;101827.94;4984029;28;20410;-35
2023/09/10 01:11:01;;;;;;;5.63;4.65;;;;;;;28.19;50.24;101837.16;4984990;28;20053;-36
2023/09/10 01:14:01;;;;;;;6.00;5.22;;;;;;;28.15;50.21;101830.44;4987490;28;20042;-36
2023/09/10 01:16:51;;;;;;;5.50;4.68;;;;;;;28.16;49.97;101832.09;4989511;28;20113;-35
2023/09/10 01:19:41;;;;;;;5.63;4.45;;;;;;;28.16;50.17;101832.09;4988436;28;20072;-36
2023/09/10 01:22:17;;;;;;;5.95;4.68;;;;;;;28.14;50.24;101829.59;4983202;28;20088;-36
2023/09/10 01:24:46;;;;;;;5.50;4.53;;;;;;;28.13;50.35;101824.31;4984295;28;20100;-35
2023/09/10 01:27:14;;;;;;;6.65;4.65;;;;;;;28.13;50.46;101821.59;4985134;28;20069;-35
2023/09/10 01:29:42;;;;;;;5.97;4.75;;;;;;;28.11;50.24;101827.25;4984898;28;20049;-35
2023/09/10 01:32:29;;;;;;;7.32;4.90;;;;;;;28.08;50.82;101822.19;4984196;28;20047;-36
2023/09/10 01:35:16;;;;;;;5.05;4.55;;;;;;;28.07;50.64;101820.50;4983101;28;20161;-35
2023/09/10 01:37:53;;;;;;;5.55;4.47;;;;;;;28.06;50.10;101829.69;4979715;28;20529;-35
2023/09/10 01:40:26;;;;;;;5.80;4.80;;;;;;;28.05;50.71;101828.84;4988048;28;20054;-35
2023/09/10 01:42:52;;;;;;;4.90;4.10;;;;;;;28.04;49.99;101821.72;4985446;28;20105;-36
2023/09/10 01:45:20;;;;;;;5.25;4.75;;;;;;;28.04;50.93;101829.06;4981995;28;20051;-35
2023/09/10 01:47:46;;;;;;;5.10;4.60;;;;;;;28.03;50.71;101832.84;4985067;28;20057;-35
2023/09/10 01:50:14;;;;;;;5.45;4.55;;;;;;;28.02;50.92;101828.41;4986623;28;20414;-35
2023/09/10 01:52:41;;;;;;;5.65;5.15;;;;;;;28.00;50.36;101831.34;4985287;28;20057;-36
2023/09/10 01:55:08;;;;;;;5.00;4.53;;;;;;;28.00;50.18;101830.50;4982755;28;20054;-35
2023/09/10 01:57:34;;;;;;;5.35;4.60;;;;;;;27.98;50.29;101832.56;4981230;28;20046;-35
2023/09/10 02:00:01;;;;;;;5.13;4.05;;;;;;;27.98;50.16;101830.72;4984241;28;20108;-35
2023/09/10 02:02:27;;;;;;;4.82;3.97;;;;;;;27.97;50.95;101833.59;4982131;28;20089;-36
2023/09/10 02:04:54;;;;;;;4.75;4.25;;;;;;;27.96;50.07;101838.22;4983845;28;20081;-36
2023/09/10 02:07:21;;;;;;;5.57;4.70;;;;;;;27.96;51.10;101840.09;4982576;28;20050;-35
2023/09/10 02:09:47;;;;;;;5.00;4.50;;;;;;;27.95;50.43;101842.00;4984072;28;20130;-35
2023/09/10 02:12:14;;;;;;;4.88;4.38;;;;;;;27.93;50.08;101838.59;4984511;28;20932;-35
2023/09/10 02:14:42;;;;;;;4.88;4.28;;;;;;;27.93;51.15;101835.88;5012813;28;20112;-35
2023/09/10 02:17:09;;;;;;;5.10;4.60;;;;;;;27.92;50.10;101836.09;4982641;28;20442;-35
2023/09/10 02:19:35;;;;;;;4.88;4.38;;;;;;;27.91;50.36;101826.22;4983904;28;20145;-35
2023/09/10 02:22:02;;;;;;;5.30;4.50;;;;;;;27.91;50.71;101834.41;4985301;28;20140;-35
2023/09/10 02:24:29;;;;;;;5.32;4.57;;;;;;;27.89;50.61;101826.41;4985776;28;20077;-35
2023/09/10 02:26:55;;;;;;;5.38;4.63;;;;;;;27.89;50.97;101840.03;4984680;28;20094;-35
2023/09/10 02:29:22;;;;;;;5.20;4.50;;;;;;;27.87;50.52;101833.13;4982523;28;20312;-35
2023/09/10 02:31:49;;;;;;;4.40;3.85;;;;;;;27.87;50.36;101835.84;4981986;28;20060;-35
2023/09/10 02:34:15;;;;;;;6.05;4.30;;;;;;;27.85;50.93;101833.28;4984395;28;20049;-35
2023/09/10 02:36:42;;;;;;;4.68;4.18;;;;;;;27.86;51.20;101834.13;4983859;28;20426;-36
2023/09/10 02:39:09;;;;;;;4.40;4.00;;;;;;;27.84;50.27;101831.59;4978455;28;20101;-36
2023/09/10 02:41:35;;;;;;;4.38;3.97;;;;;;;27.83;51.07;101835.38;4983710;28;20076;-36
2023/09/10 02:44:02;;;;;;;4.93;4.43;;;;;;;27.82;50.94;101827.38;4985309;28;20634;-35
2023/09/10 02:46:29;;;;;;;4.70;4.20;;;;;;;27.81;50.17;101826.53;4984123;28;20149;-36
2023/09/10 02:48:55;;;;;;;5.15;4.50;;;;;;;27.79;50.90;101818.56;4985493;28;20050;-36
2023/09/10 02:51:22;;;;;;;4.82;4.32;;;;;;;27.79;50.67;101823.19;4985409;28;20046;-35
2023/09/10 02:53:48;;;;;;;4.78;4.28;;;;;;;27.79;50.99;101824.03;4985891;28;20062;-35
2023/09/10 02:56:15;;;;;;;4.35;3.85;;;;;;;27.78;50.35;101821.50;4985654;28;20109;-35
2023/09/10 02:58:42;;;;;;;5.13;4.25;;;;;;;27.77;50.63;101825.25;4986701;28;20097;-35
2023/09/10 03:01:08;;;;;;;4.40;4.00;;;;;;;27.76;51.29;101823.56;4980590;28;20078;-36
2023/09/10 03:03:35;;;;;;;5.25;3.80;;;;;;;27.75;51.07;101821.88;4980883;28;20498;-36
2023/09/10 03:06:02;;;;;;;5.40;4.43;;;;;;;27.74;50.46;101826.50;4982694;28;20057;-35
2023/09/10 03:08:35;;;;;;;4.72;4.28;;;;;;;27.74;50.91;101821.06;4980005;28;20058;-36
2023/09/10 03:11:04;;;;;;;4.20;3.80;;;;;;;27.73;50.31;101818.47;4982194;28;20050;-35
2023/09/10 03:13:30;;;;;;;4.55;4.05;;;;;;;27.72;51.28;101819.50;4980200;28;20047;-36
2023/09/10 03:15:57;;;;;;;4.47;3.90;;;;;;;27.72;50.40;101822.25;4981805;28;20050;-35
2023/09/10 03:18:24;;;;;;;5.35;4.47;;;;;;;27.71;50.62;101820.56;4985045;28;20065;-35
2023/09/10 03:20:50;;;;;;;4.75;4.30;;;;;;;27.70;51.10;101825.16;4984669;28;20082;-35
2023/09/10 03:23:18;;;;;;;4.38;3.97;;;;;;;27.70;50.42;101816.13;4983042;28;20403;-35
2023/09/10 03:25:45;;;;;;;6.10;4.50;;;;;;;27.69;51.12;101818.00;4983565;28;20101;-35
2023/09/10 03:28:12;;;;;;;5.50;4.15;;;;;;;27.68;50.42;101818.22;4979308;28;20050;-35
2023/09/10 03:30:38;;;;;;;4.60;3.97;;;;;;;27.68;50.46;101815.50;4981727;28;20129;-36
2023/09/10 03:33:05;;;;;;;4.60;4.10;;;;;;;27.66;50.49;101818.44;4983077;28;20129;-35
2023/09/10 03:35:32;;;;;;;4.22;3.80;;;;;;;27.67;51.11;101816.53;4984901;28;20054;-35
2023/09/10 03:37:58;;;;;;;4.93;4.40;;;;;;;27.67;50.70;101819.25;4984242;28;20046;-35
2023/09/10 03:40:25;;;;;;;4.05;3.63;;;;;;;27.65;50.95;101814.00;4984166;28;20126;-35
2023/09/10 03:42:52;;;;;;;7.60;4.25;;;;;;;27.65;50.73;101818.59;4983234;28;20078;-35
2023/09/10 03:45:18;;;;;;;4.72;3.88;;;;;;;27.64;50.59;101819.66;4984297;28;20128;-36
2023/09/10 03:47:45;;;;;;;5.18;3.75;;;;;;;27.64;51.03;101803.31;4986781;28;20102;-36
2023/09/10 03:50:13;;;;;;;4.15;3.75;;;;;;;27.63;50.98;101807.06;4990628;28;20076;-35
2023/09/10 03:52:40;;;;;;;5.00;4.05;;;;;;;27.63;51.38;101812.53;4987899;28;20050;-36
2023/09/10 03:55:07;;;;;;;5.45;4.38;;;;;;;27.62;50.79;101813.53;4986491;28;20089;-35
2023/09/10 03:57:33;;;;;;;4.45;4.05;;;;;;;27.60;50.48;101813.75;4985834;28;20170;-35
2023/09/10 04:00:00;;;;;;;4.10;3.70;;;;;;;27.61;50.52;101814.59;4987553;28;20672;-35
2023/09/10 04:02:28;;;;;;;4.22;3.83;;;;;;;27.60;50.98;101813.75;4985699;28;20088;-36
2023/09/10 04:04:55;;;;;;;4.13;3.70;;;;;;;27.60;50.93;101815.63;4989368;28;20070;-36
2023/09/10 04:07:22;;;;;;;5.03;3.97;;;;;;;27.58;50.68;101804.94;4989178;28;20057;-36
2023/09/10 04:09:48;;;;;;;4.38;3.92;;;;;;;27.59;51.14;101805.78;4984579;28;20042;-35
2023/09/10 04:12:15;;;;;;;4.72;4.00;;;;;;;27.57;51.12;101808.69;4982749;28;20387;-36
2023/09/10 04:14:41;;;;;;;4.07;3.67;;;;;;;27.56;51.20;101802.38;4985846;28;20108;-35
2023/09/10 04:17:08;;;;;;;4.35;3.95;;;;;;;27.55;50.93;101806.16;4989347;28;20089;-36
2023/09/10 04:19:35;;;;;;;5.05;4.25;;;;;;;27.55;51.16;101803.44;4985017;28;20050;-36
2023/09/10 04:22:02;;;;;;;5.05;4.25;;;;;;;27.54;50.59;101809.94;4986199;28;20355;-35
2023/09/10 04:24:29;;;;;;;4.07;3.63;;;;;;;27.53;51.03;101813.66;4983702;28;20085;-35
2023/09/10 04:26:55;;;;;;;4.57;3.78;;;;;;;27.53;50.70;101813.66;4984995;28;20085;-35
2023/09/10 04:29:22;;;;;;;4.32;3.63;;;;;;;27.52;51.09;101808.41;4986407;28;20082;-36
2023/09/10 04:31:49;;;;;;;4.47;4.07;;;;;;;27.52;51.27;101806.53;4981491;28;20051;-35
2023/09/10 04:34:15;;;;;;;3.90;3.50;;;;;;;27.51;50.93;101810.31;4986197;28;20061;-35
2023/09/10 04:36:42;;;;;;;4.63;4.07;;;;;;;27.50;50.84;101803.19;4988305;28;20497;-35
2023/09/10 04:39:09;;;;;;;4.30;3.90;;;;;;;27.51;50.88;101804.03;4982890;28;20043;-36
2023/09/10 04:41:36;;;;;;;4.53;4.03;;;;;;;27.50;51.11;101814.06;4983110;28;20062;-36
2023/09/10 04:44:03;;;;;;;4.88;4.00;;;;;;;27.49;50.70;101801.47;4986184;28;20046;-35
2023/09/10 04:46:30;;;;;;;4.78;3.83;;;;;;;27.49;51.38;101811.53;4987617;28;20071;-35
2023/09/10 04:48:58;;;;;;;4.35;3.95;;;;;;;27.48;50.61;101807.97;4983686;28;20058;-35
2023/09/10 04:51:24;;;;;;;4.55;3.53;;;;;;;27.48;50.87;101804.41;4983940;28;20098;-36
2023/09/10 04:53:51;;;;;;;4.05;3.47;;;;;;;27.46;51.27;101801.88;4983278;28;20097;-36
2023/09/10 04:56:18;;;;;;;4.57;4.10;;;;;;;27.46;51.26;101812.78;4987874;28;20132;-36
2023/09/10 04:58:45;;;;;;;4.25;3.85;;;;;;;27.45;51.31;101808.34;4993566;28;20051;-36
2023/09/10 05:01:12;;;;;;;4.78;3.95;;;;;;;27.45;51.43;101808.34;4987671;28;20058;-36
2023/09/10 05:03:38;;;;;;;4.43;4.03;;;;;;;27.45;50.64;101810.22;4984964;28;20078;-36
2023/09/10 05:06:05;;;;;;;5.82;3.75;;;;;;;27.45;51.35;101818.38;4986879;28;20140;-36
2023/09/10 05:08:32;;;;;;;4.15;3.75;;;;;;;27.43;50.87;101806.88;4983321;28;20458;-36
2023/09/10 05:10:58;;;;;;;4.20;3.72;;;;;;;27.42;51.17;101810.59;4985301;28;20042;-36
2023/09/10 05:13:25;;;;;;;4.03;3.63;;;;;;;27.41;50.74;101814.38;4984194;28;20422;-36
2023/09/10 05:15:54;;;;;;;5.03;3.90;;;;;;;27.42;51.12;101816.03;4982484;28;20109;-36
2023/09/10 05:18:21;;;;;;;4.10;3.70;;;;;;;27.41;51.16;101817.09;4985114;28;20093;-36
2023/09/10 05:20:48;;;;;;;5.07;4.25;;;;;;;27.40;50.65;101805.34;4986503;28;20434;-36
2023/09/10 05:23:15;;;;;;;4.07;3.65;;;;;;;27.41;50.55;101812.47;4985289;28;20046;-35
2023/09/10 05:25:41;;;;;;;3.78;3.33;;;;;;;27.40;50.76;101805.34;4988157;28;20133;-35
2023/09/10 05:28:08;;;;;;;4.55;3.80;;;;;;;27.41;51.19;101817.94;4988837;28;20054;-35
2023/09/10 05:30:38;;;;;;;4.15;3.63;;;;;;;27.40;50.93;101810.81;4985936;28;20054;-35
2023/09/10 05:33:04;;;;;;;3.90;3.55;;;;;;;27.41;51.06;101819.81;4986876;28;20046;-35
2023/09/10 05:35:31;;;;;;;4.80;4.30;;;;;;;27.40;51.03;101815.41;4983239;28;20046;-35
2023/09/10 05:37:58;;;;;;;4.97;3.67;;;;;;;27.40;50.81;101809.97;4986056;28;20042;-35
2023/09/10 05:40:25;;;;;;;4.43;3.83;;;;;;;27.40;50.81;101809.97;4982317;28;20049;-35
2023/09/10 05:42:52;;;;;;;4.03;3.63;;;;;;;27.39;50.58;101809.13;4983978;28;20051;-35
2023/09/10 05:45:19;;;;;;;4.50;4.10;;;;;;;27.40;51.14;101812.69;4982863;28;20132;-35
2023/09/10 05:47:46;;;;;;;4.13;3.47;;;;;;;27.40;51.17;101818.97;4982404;28;20058;-35
2023/09/10 05:50:12;;;;;;;3.95;3.55;;;;;;;27.40;50.81;101816.25;4983530;28;20058;-35
2023/09/10 05:52:39;;;;;;;4.40;3.47;;;;;;;27.40;50.85;101818.97;4986987;28;20410;-35
2023/09/10 05:55:06;;;;;;;3.97;3.58;;;;;;;27.40;50.98;101821.69;4983660;28;20134;-35
2023/09/10 05:57:32;;;;;;;6.63;4.05;;;;;;;27.41;51.12;101828.81;4985997;28;20422;-35
2023/09/10 05:59:59;;;;;;;3.75;3.15;;;;;;;27.40;51.06;101818.97;4983375;28;20046;-35
2023/09/10 06:02:26;;;;;;;4.68;3.40;;;;;;;27.42;50.60;101818.78;4987514;28;20125;-36
2023/09/10 06:04:53;;;;;;;3.65;3.10;;;;;;;27.41;50.60;101822.53;4985623;28;20078;-35
2023/09/10 06:07:20;;;;;;;3.90;3.50;;;;;;;27.42;50.68;101824.22;4986672;28;20060;-35
2023/09/10 06:09:46;;;;;;;4.35;3.83;;;;;;;27.42;51.00;101827.81;4983072;28;20149;-36
2023/09/10 06:12:13;;;;;;;4.43;3.42;;;;;;;27.42;50.50;101827.81;4984673;28;20046;-35
2023/09/10 06:14:39;;;;;;;4.93;3.47;;;;;;;27.44;50.55;101828.44;4981290;28;20116;-35
2023/09/10 06:17:06;;;;;;;3.92;3.53;;;;;;;27.44;51.00;101831.16;4987393;28;20081;-35
2023/09/10 06:19:33;;;;;;;4.60;3.88;;;;;;;27.46;50.73;101831.00;4983348;28;20052;-36
2023/09/10 06:21:59;;;;;;;4.07;3.63;;;;;;;27.47;51.02;101835.41;4983551;28;20047;-36
2023/09/10 06:24:26;;;;;;;4.00;3.60;;;;;;;27.47;50.92;101838.97;4978390;28;20136;-36
2023/09/10 06:26:52;;;;;;;4.43;4.03;;;;;;;27.48;50.97;101843.34;4982410;28;20113;-36
2023/09/10 06:29:23;;;;;;;4.18;3.58;;;;;;;27.51;51.00;101842.16;4983846;28;20414;-36
2023/09/10 06:31:49;;;;;;;4.43;3.90;;;;;;;27.50;50.68;101846.75;4986012;28;20050;-36
2023/09/10 06:34:16;;;;;;;5.65;4.53;;;;;;;27.51;50.78;101842.16;4991838;28;20577;-36
2023/09/10 06:36:43;;;;;;;5.38;4.57;;;;;;;27.52;50.28;101846.53;4992306;28;20084;-36
2023/09/10 06:39:09;;;;;;;6.95;4.88;;;;;;;27.52;50.77;101847.38;4981765;28;20141;-36
2023/09/10 06:41:36;;;;;;;4.82;3.95;;;;;;;27.54;50.60;101848.06;4981959;28;20046;-36
2023/09/10 06:44:03;;;;;;;5.60;4.57;;;;;;;27.55;50.44;101848.88;4982358;28;20054;-36
2023/09/10 06:46:29;;;;;;;5.50;4.47;;;;;;;27.55;50.37;101849.72;4980515;28;20047;-35
2023/09/10 06:48:56;;;;;;;5.38;4.47;;;;;;;27.55;50.58;101855.19;4983465;28;20047;-35
2023/09/10 06:51:22;;;;;;;5.18;4.35;;;;;;;27.57;50.07;101852.25;4983157;28;20102;-36
2023/09/10 06:53:49;;;;;;;6.60;4.88;;;;;;;27.57;50.72;101849.53;4984525;28;20379;-35
2023/09/10 06:56:15;;;;;;;6.38;4.20;;;;;;;27.58;50.07;101856.69;4983673;28;20394;-35
2023/09/10 06:58:42;;;;;;;4.78;4.28;;;;;;;27.59;50.21;101849.34;4982586;28;20054;-35
2023/09/10 07:01:09;;;;;;;4.82;4.15;;;;;;;27.59;50.76;101849.34;4981244;28;20057;-35
2023/09/10 07:03:37;;;;;;;6.85;4.45;;;;;;;27.59;50.55;101850.19;4981598;28;20105;-36
2023/09/10 07:06:05;;;;;;;6.25;4.85;;;;;;;27.59;50.15;101850.19;4986704;28;20089;-36
2023/09/10 07:08:35;;;;;;;7.38;5.35;;;;;;;27.61;50.58;101847.25;4989436;28;20109;-36
2023/09/10 07:11:02;;;;;;;5.45;4.72;;;;;;;27.59;49.90;101847.47;4986604;28;20118;-36
2023/09/10 07:13:30;;;;;;;6.38;5.60;;;;;;;27.60;50.26;101851.88;4979574;28;20053;-36
2023/09/10 07:15:56;;;;;;;6.03;4.53;;;;;;;27.61;50.37;101850.81;4983719;28;20220;-36
2023/09/10 07:18:23;;;;;;;5.05;4.43;;;;;;;27.61;50.16;101853.56;4983718;28;20069;-36
2023/09/10 07:20:49;;;;;;;11.45;9.48;;;;;;;27.61;50.85;101850.00;4987313;28;20128;-36
2023/09/10 07:23:16;;;;;;;12.98;9.90;;;;;;;27.61;50.77;101850.81;4985456;28;20058;-36
2023/09/10 07:25:43;;;;;;;16.98;11.30;;;;;;;27.62;50.86;101848.94;4987107;28;20054;-36
2023/09/10 07:28:09;;;;;;;16.95;11.30;;;;;;;27.63;50.84;101850.66;4983503;28;20137;-36
2023/09/10 07:30:36;;;;;;;17.63;12.20;;;;;;;27.64;50.08;101853.16;4986197;28;20082;-36
2023/09/10 07:33:02;;;;;;;15.57;11.82;;;;;;;27.65;50.51;101851.28;4985637;28;20046;-36
2023/09/10 07:35:29;;;;;;;18.92;13.40;;;;;;;27.65;50.73;101859.47;4983108;28;20090;-36
2023/09/10 07:37:56;;;;;;;21.85;13.40;;;;;;;27.65;50.34;101864.91;5016368;28;20120;-36
2023/09/10 07:40:22;;;;;;;20.95;12.77;;;;;;;27.64;50.02;101855.91;4986120;28;20345;-36
2023/09/10 07:42:50;;;;;;;21.65;14.18;;;;;;;27.64;50.84;101863.22;4985011;28;20069;-36
2023/09/10 07:45:16;;;;;;;29.38;14.70;;;;;;;27.62;50.72;101852.53;4985094;28;20457;-36
2023/09/10 07:47:43;;;;;;;28.52;16.25;;;;;;;27.63;50.67;101853.38;4982466;28;20057;-36
2023/09/10 07:50:10;;;;;;;26.30;16.85;;;;;;;27.63;50.95;101850.66;4985341;28;20776;-36
2023/09/10 07:52:37;;;;;;;27.05;17.58;;;;;;;27.62;50.91;101859.84;4984896;28;20045;-36
2023/09/10 07:55:03;;;;;;;24.05;17.48;;;;;;;27.62;50.61;101851.66;4984300;28;20108;-36
2023/09/10 07:57:30;;;;;;;20.33;15.18;;;;;;;27.64;51.23;101852.34;4986245;28;20054;-36
2023/09/10 07:59:57;;;;;;;28.23;17.77;;;;;;;27.62;51.27;101857.97;4984588;28;20043;-36
2023/09/10 08:02:26;;;;;;;25.63;16.67;;;;;;;27.65;50.65;101862.19;4984243;28;20105;-36
2023/09/10 08:04:53;;;;;;;28.13;18.02;;;;;;;27.65;50.47;101859.47;4985434;28;20054;-36
2023/09/10 08:07:20;;;;;;;25.02;16.55;;;;;;;27.67;51.04;101863.69;4982755;28;20055;-36
2023/09/10 08:09:47;;;;;;;25.90;15.98;;;;;;;27.67;50.24;101858.25;4984853;28;20393;-36
2023/09/10 08:12:13;;;;;;;20.58;14.43;;;;;;;27.68;50.60;101862.66;4988582;28;20406;-36
2023/09/10 08:14:41;;;;;;;26.02;16.70;;;;;;;27.69;50.69;101867.03;4985053;28;20050;-35
2023/09/10 08:17:07;;;;;;;22.92;15.48;;;;;;;27.70;50.52;101863.31;4983719;28;20074;-36
2023/09/10 08:19:34;;;;;;;21.70;15.02;;;;;;;27.71;50.90;101869.59;4986321;28;20493;-36
2023/09/10 08:22:01;;;;;;;21.85;14.55;;;;;;;27.70;50.76;101863.31;4983549;28;20054;-36
2023/09/10 08:24:27;;;;;;;23.70;14.77;;;;;;;27.71;50.52;101872.31;4986979;28;20450;-36
2023/09/10 08:26:54;;;;;;;21.63;13.30;;;;;;;27.70;50.46;101866.03;4980899;28;20418;-36
2023/09/10 08:29:20;;;;;;;24.88;13.98;;;;;;;27.71;51.06;101858.69;4987353;28;20042;-36
2023/09/10 08:31:47;;;;;;;21.08;15.25;;;;;;;27.71;50.34;101850.53;4981524;28;20054;-36
2023/09/10 08:34:14;;;;;;;22.77;15.80;;;;;;;27.71;50.28;101853.25;4988643;28;20057;-36
2023/09/10 08:36:40;;;;;;;22.27;16.00;;;;;;;27.71;51.00;101856.81;4988273;28;20137;-36
2023/09/10 08:39:07;;;;;;;27.02;15.00;;;;;;;27.71;50.45;101848.63;4984774;28;20357;-36
2023/09/10 08:41:56;;;;;;;24.63;13.85;;;;;;;27.73;50.14;101848.44;4983529;28;20105;-35
2023/09/10 08:44:24;;;;;;;23.90;12.85;;;;;;;27.76;49.96;101850.81;4982550;28;21598;-36
2023/09/10 08:46:55;;;;;;;26.17;13.05;;;;;;;27.76;50.08;101842.63;4983055;28;20129;-36
2023/09/10 08:49:26;;;;;;;20.17;11.68;;;;;;;27.77;50.70;101855.22;4984774;28;20756;-36
2023/09/10 08:51:54;;;;;;;22.90;11.27;;;;;;;27.78;50.68;101841.41;4983588;28;20050;-36
2023/09/10 08:54:21;;;;;;;19.95;11.32;;;;;;;27.79;50.14;101850.44;4982515;28;20145;-36
2023/09/10 08:56:49;;;;;;;19.70;10.30;;;;;;;27.79;50.41;101845.81;4981250;28;20097;-36
2023/09/10 08:59:16;;;;;;;18.45;10.45;;;;;;;27.80;50.64;101844.78;4987852;28;20050;-36
2023/09/10 09:01:44;;;;;;;17.10;9.32;;;;;;;27.81;50.57;101848.34;4983556;28;20049;-35
2023/09/10 09:04:12;;;;;;;18.00;9.48;;;;;;;27.83;49.89;101843.56;4982897;28;20054;-36
2023/09/10 09:06:43;;;;;;;19.45;10.90;;;;;;;27.85;50.06;101852.38;4984544;28;20124;-36
2023/09/10 09:09:12;;;;;;;13.13;8.55;;;;;;;27.86;49.83;101854.06;4984537;28;20168;-35
2023/09/10 09:11:41;;;;;;;18.30;9.60;;;;;;;27.87;50.44;101847.56;4987119;28;20052;-35
2023/09/10 09:14:09;;;;;;;17.55;8.75;;;;;;;27.90;50.04;101849.03;4985408;28;20053;-36
2023/09/10 09:16:38;;;;;;;12.35;8.60;;;;;;;27.90;50.50;101844.47;4982003;28;20124;-36
2023/09/10 09:19:13;;;;;;;14.25;8.82;;;;;;;27.92;50.39;101853.28;4983912;28;20132;-36
2023/09/10 09:21:41;;;;;;;17.40;9.30;;;;;;;27.94;50.38;101850.34;4983162;28;20050;-36
2023/09/10 09:24:10;;;;;;;11.02;8.13;;;;;;;27.96;49.91;101843.66;4984601;28;20058;-36
2023/09/10 09:26:39;;;;;;;47.65;14.43;;;;;;;27.98;50.27;101836.16;4983167;28;20050;-36
2023/09/10 09:29:07;;;;;;;76.80;21.13;;;;;;;28.01;50.49;101837.63;4986544;28;20050;-36
2023/09/10 09:31:34;;;;;;;72.93;20.70;;;;;;;28.03;50.06;101836.41;4987156;28;20053;-36
2023/09/10 09:34:01;;;;;;;65.97;20.42;;;;;;;28.07;49.98;101844.19;4983321;28;20442;-35
2023/09/10 09:36:28;;;;;;;53.92;18.17;;;;;;;28.10;50.53;101843.78;4986921;28;20046;-35
2023/09/10 09:38:55;;;;;;;43.03;15.75;;;;;;;28.14;50.38;101835.03;4985818;28;20042;-36
2023/09/10 09:41:22;;;;;;;29.90;13.13;;;;;;;28.18;50.82;101832.72;4990723;28;20042;-36
2023/09/10 09:43:48;;;;;;;25.40;12.07;;;;;;;28.22;50.86;101832.16;4984242;28;20343;-37
2023/09/10 09:46:16;;;;;;;33.58;13.27;;;;;;;28.26;50.55;101836.19;4983301;28;20057;-36
2023/09/10 09:48:44;;;;;;;25.67;11.98;;;;;;;28.32;50.01;101836.41;4986402;28;20081;-36
2023/09/10 09:51:13;;;;;;;22.15;10.98;;;;;;;28.37;49.74;101839.41;4986230;28;20101;-36
2023/09/10 09:53:40;;;;;;;22.88;11.40;;;;;;;28.43;50.31;101841.38;4981567;28;20059;-36
2023/09/10 09:56:07;;;;;;;20.60;10.55;;;;;;;28.46;50.36;101830.91;4988430;28;20447;-36
2023/09/10 09:58:34;;;;;;;17.45;9.25;;;;;;;28.50;50.37;101832.19;4984356;28;20051;-35
2023/09/10 10:01:01;;;;;;;19.58;10.18;;;;;;;28.56;49.99;101826.97;4983551;28;20055;-35
2023/09/10 10:03:33;;;;;;;17.45;8.93;;;;;;;28.61;50.38;101832.66;5009620;28;20043;-36
2023/09/10 10:06:01;;;;;;;20.13;9.50;;;;;;;28.66;50.10;101824.72;4983479;28;20108;-36
2023/09/10 10:08:29;;;;;;;14.43;9.23;;;;;;;28.70;49.54;101823.25;4984265;28;20543;-36
2023/09/10 10:10:56;;;;;;;20.48;9.77;;;;;;;28.73;49.98;101825.59;4984066;28;20073;-36
2023/09/10 10:13:25;;;;;;;16.50;8.40;;;;;;;28.78;49.98;101828.56;4991270;28;20101;-37
2023/09/10 10:15:55;;;;;;;19.63;8.43;;;;;;;28.81;49.54;101822.69;5012781;28;20050;-37
2023/09/10 10:18:23;;;;;;;14.80;7.95;;;;;;;28.85;49.63;101820.41;4979944;28;20046;-37
2023/09/10 10:20:50;;;;;;;18.00;8.30;;;;;;;28.88;49.26;101820.00;4982324;28;20125;-38
2023/09/10 10:23:19;;;;;;;17.88;7.93;;;;;;;28.91;49.11;101815.00;4980584;28;20506;-37
2023/09/10 10:25:53;;;;;;;15.70;7.70;;;;;;;28.93;49.31;101812.88;4983729;28;20051;-37
2023/09/10 10:28:20;;;;;;;11.77;6.97;;;;;;;28.97;49.59;101816.94;4982737;28;20086;-37
2023/09/10 10:30:52;;;;;;;10.65;7.60;;;;;;;29.00;49.12;101810.22;4980564;28;20046;-37
2023/09/10 10:33:23;;;;;;;13.32;7.57;;;;;;;29.02;48.98;101806.22;4983287;28;20053;-37
2023/09/10 10:36:10;;;;;;;13.07;7.88;;;;;;;29.07;48.78;101804.78;4983964;28;20562;-37
2023/09/10 10:38:43;;;;;;;12.57;7.22;;;;;;;29.09;49.42;101803.53;4980842;28;20142;-37
2023/09/10 10:41:14;;;;;;;8.95;6.25;;;;;;;29.11;49.29;101796.00;4982259;28;20649;-37
2023/09/10 10:43:50;;;;;;;10.68;6.97;;;;;;;29.15;48.67;101804.63;5013023;28;20393;-37
2023/09/10 10:46:22;;;;;;;15.43;8.15;;;;;;;29.17;49.11;101797.91;4990311;28;20050;-37
2023/09/10 10:48:50;;;;;;;11.13;6.80;;;;;;;29.20;49.10;101804.84;4985165;28;20085;-37
2023/09/10 10:51:17;;;;;;;10.82;7.13;;;;;;;29.22;49.01;101805.47;4983388;28;20050;-37
2023/09/10 10:53:46;;;;;;;10.50;7.10;;;;;;;29.23;49.07;101807.19;4983070;28;20114;-37
2023/09/10 10:56:13;;;;;;;13.18;7.05;;;;;;;29.25;48.63;101802.34;4983840;28;20089;-37
2023/09/10 10:58:41;;;;;;;23.23;8.23;;;;;;;29.26;48.42;101802.13;4983769;28;20623;-37
2023/09/10 11:01:11;;;;;;;12.85;7.00;;;;;;;29.29;48.88;101800.03;4980027;28;20101;-37
2023/09/10 11:03:38;;;;;;;9.77;6.03;;;;;;;29.30;48.84;101804.44;4981659;28;20109;-37
2023/09/10 11:06:07;;;;;;;12.18;7.03;;;;;;;29.29;48.86;101800.88;4984403;28;20054;-37
2023/09/10 11:08:42;;;;;;;11.00;7.35;;;;;;;29.31;48.62;101801.53;4982701;28;20137;-37
2023/09/10 11:11:10;;;;;;;12.68;7.13;;;;;;;29.32;48.84;101795.00;4983803;28;20051;-37
2023/09/10 11:14:01;;;;;;;11.00;7.20;;;;;;;29.32;49.15;101794.16;4980394;28;20055;-37
2023/09/10 11:16:43;;;;;;;12.48;6.90;;;;;;;29.33;48.55;101793.13;4985074;28;20077;-37
2023/09/10 11:19:56;;;;;;;16.30;7.85;;;;;;;29.33;49.12;101788.50;4987801;28;20335;-36
2023/09/10 11:22:23;;;;;;;13.20;7.53;;;;;;;29.36;49.03;101788.09;4979802;28;20854;-37
2023/09/10 11:25:00;;;;;;;11.00;6.63;;;;;;;29.35;48.63;101794.59;4980960;28;20430;-37
2023/09/10 11:27:27;;;;;;;9.52;6.72;;;;;;;29.36;48.69;101785.34;4982875;28;20443;-37